createdAt,value
2017-12-25T00:00:06.750Z,101550.41
2017-12-25T00:02:35.969Z,101551.27
2017-12-25T00:05:12.538Z,101543.01
2017-12-25T00:07:42.131Z,101538.60
2017-12-25T00:10:11.344Z,101536.91
2017-12-25T00:12:40.585Z,101532.69
2017-12-25T00:15:10.128Z,101539.08
2017-12-25T00:17:39.397Z,101538.20
2017-12-25T00:20:08.938Z,101536.94
2017-12-25T00:22:38.499Z,101536.99
2017-12-25T00:25:07.747Z,101531.72
2017-12-25T00:27:37.114Z,101529.69
2017-12-25T00:30:07.021Z,101527.80
2017-12-25T00:32:36.273Z,101526.48
2017-12-25T00:35:05.963Z,101524.75
2017-12-25T00:37:35.535Z,101523.78
2017-12-25T00:40:06.521Z,101527.26
2017-12-25T00:42:35.753Z,101522.85
2017-12-25T00:45:06.631Z,101520.48
2017-12-25T00:47:36.266Z,101521.36
2017-12-25T00:50:07.861Z,101515.97
2017-12-25T00:52:37.784Z,101518.69
2017-12-25T00:55:07.530Z,101513.89
2017-12-25T00:57:36.749Z,101522.18
2017-12-25T01:00:05.853Z,101511.28
2017-12-25T01:02:35.071Z,101516.61
2017-12-25T01:05:05.277Z,101517.63
2017-12-25T01:07:34.868Z,101513.65
2017-12-25T01:10:06.092Z,101509.25
2017-12-25T01:12:35.427Z,101511.42
2017-12-25T01:15:06.090Z,101504.34
2017-12-25T01:17:35.358Z,101507.89
2017-12-25T01:20:06.208Z,101507.46
2017-12-25T01:22:35.875Z,101512.19
2017-12-25T01:25:06.045Z,101509.24
2017-12-25T01:27:35.566Z,101515.69
2017-12-25T01:30:06.437Z,101520.92
2017-12-25T01:32:35.651Z,101518.50
2017-12-25T01:35:06.402Z,101515.45
2017-12-25T01:37:35.942Z,101512.01
2017-12-25T01:40:06.235Z,101517.14
2017-12-25T01:42:35.440Z,101508.19
2017-12-25T01:45:05.152Z,101506.02
2017-12-25T01:47:34.367Z,101508.77
2017-12-25T01:50:05.666Z,101504.03
2017-12-25T01:52:35.393Z,101499.09
2017-12-25T01:55:06.537Z,101501.41
2017-12-25T01:57:36.746Z,101500.02
2017-12-25T02:00:06.924Z,101494.48
2017-12-25T02:02:36.594Z,101490.86
2017-12-25T02:05:06.277Z,101492.08
2017-12-25T02:08:12.123Z,101489.89
2017-12-25T02:10:41.337Z,101486.06
2017-12-25T02:13:10.861Z,101482.23
2017-12-25T02:15:40.077Z,101493.95
2017-12-25T02:18:09.305Z,101490.72
2017-12-25T02:20:38.858Z,101481.80
2017-12-25T02:23:08.093Z,101473.15
2017-12-25T02:25:37.327Z,101471.40
2017-12-25T02:28:06.896Z,101469.56
2017-12-25T02:30:36.165Z,101462.65
2017-12-25T02:33:05.450Z,101463.51
2017-12-25T02:35:35.995Z,101467.05
2017-12-25T02:38:06.203Z,101460.99
2017-12-25T02:40:35.435Z,101465.78
2017-12-25T02:43:05.235Z,101459.98
2017-12-25T02:45:34.474Z,101459.65
2017-12-25T02:48:04.331Z,101457.56
2017-12-25T02:50:33.838Z,101459.70
2017-12-25T02:53:03.650Z,101453.59
2017-12-25T02:55:32.860Z,101447.89
2017-12-25T02:58:03.974Z,101441.83
2017-12-25T03:00:33.257Z,101445.17
2017-12-25T03:03:03.033Z,101442.65
2017-12-25T03:05:32.601Z,101450.50
2017-12-25T03:08:01.832Z,101443.53
2017-12-25T03:10:31.029Z,101440.82
2017-12-25T03:13:01.195Z,101442.95
2017-12-25T03:15:30.721Z,101443.82
2017-12-25T03:18:00.514Z,101443.53
2017-12-25T03:20:30.018Z,101447.05
2017-12-25T03:22:59.326Z,101438.31
2017-12-25T03:25:28.532Z,101439.22
2017-12-25T03:27:58.102Z,101440.63
2017-12-25T03:30:27.340Z,101441.50
2017-12-25T03:32:56.775Z,101430.27
2017-12-25T03:35:25.991Z,101439.38
2017-12-25T03:37:55.225Z,101439.14
2017-12-25T03:40:24.748Z,101434.39
2017-12-25T03:42:54.000Z,101431.25
2017-12-25T03:45:23.462Z,101423.98
2017-12-25T03:47:53.885Z,101422.20
2017-12-25T03:50:23.112Z,101416.73
2017-12-25T03:52:52.635Z,101414.52
2017-12-25T03:55:21.866Z,101416.59
2017-12-25T03:57:51.123Z,101412.67
2017-12-25T04:00:21.351Z,101411.66
2017-12-25T04:02:51.161Z,101408.89
2017-12-25T04:05:20.389Z,101412.14
2017-12-25T04:07:49.903Z,101408.75
2017-12-25T04:10:19.235Z,101405.72
2017-12-25T04:12:48.480Z,101408.37
2017-12-25T04:15:17.771Z,101401.39
2017-12-25T04:17:46.984Z,101401.11
2017-12-25T04:20:16.494Z,101403.14
2017-12-25T04:22:45.762Z,101397.58
2017-12-25T04:25:15.155Z,101397.73
2017-12-25T04:27:44.686Z,101401.64
2017-12-25T04:30:14.248Z,101396.41
2017-12-25T04:32:43.497Z,101394.16
2017-12-25T04:35:12.821Z,101396.23
2017-12-25T04:37:42.049Z,101394.48
2017-12-25T04:40:11.538Z,101393.09
2017-12-25T04:42:40.776Z,101389.21
2017-12-25T04:45:10.052Z,101387.91
2017-12-25T04:47:39.559Z,101384.96
2017-12-25T04:50:08.826Z,101389.20
2017-12-25T04:52:38.046Z,101387.56
2017-12-25T04:55:07.239Z,101378.12
2017-12-25T04:57:36.465Z,101387.75
2017-12-25T05:00:07.049Z,101377.75
2017-12-25T05:02:36.759Z,101378.27
2017-12-25T05:05:06.354Z,101374.31
2017-12-25T05:07:36.160Z,101376.97
2017-12-25T05:10:06.053Z,101370.79
2017-12-25T05:12:35.287Z,101361.55
2017-12-25T05:15:04.935Z,101365.95
2017-12-25T05:17:34.150Z,101369.14
2017-12-25T05:20:05.869Z,101362.23
2017-12-25T05:22:35.117Z,101361.49
2017-12-25T05:25:04.509Z,101355.35
2017-12-25T05:27:34.475Z,101355.06
2017-12-25T05:30:04.614Z,101353.37
2017-12-25T05:32:33.842Z,101354.29
2017-12-25T05:35:03.631Z,101360.91
2017-12-25T05:37:32.856Z,101354.08
2017-12-25T05:40:03.060Z,101351.38
2017-12-25T05:42:32.614Z,101355.78
2017-12-25T05:45:02.323Z,101350.50
2017-12-25T05:47:31.795Z,101352.30
2017-12-25T05:50:01.098Z,101353.55
2017-12-25T05:52:30.378Z,101351.47
2017-12-25T05:55:00.096Z,101347.26
2017-12-25T05:57:29.299Z,101351.13
2017-12-25T05:59:58.600Z,101348.27
2017-12-25T06:02:28.102Z,101346.39
2017-12-25T06:04:57.404Z,101347.83
2017-12-25T06:07:26.636Z,101344.14
2017-12-25T06:09:56.099Z,101348.06
2017-12-25T06:12:25.695Z,101341.40
2017-12-25T06:14:54.925Z,101344.10
2017-12-25T06:17:25.419Z,101345.09
2017-12-25T06:19:54.927Z,101336.97
2017-12-25T06:22:24.487Z,101347.09
2017-12-25T06:24:54.018Z,101344.36
2017-12-25T06:27:23.248Z,101341.80
2017-12-25T06:29:52.517Z,101343.58
2017-12-25T06:32:22.087Z,101339.70
2017-12-25T06:34:51.342Z,101334.06
2017-12-25T06:37:20.863Z,101337.58
2017-12-25T06:39:50.436Z,101336.19
2017-12-25T06:42:19.656Z,101323.15
2017-12-25T06:44:48.925Z,101328.36
2017-12-25T06:47:18.487Z,101324.01
2017-12-25T06:49:47.734Z,101324.92
2017-12-25T06:52:17.042Z,101313.53
2017-12-25T06:54:46.609Z,101314.50
2017-12-25T06:57:16.111Z,101315.80
2017-12-25T06:59:45.395Z,101305.36
2017-12-25T07:02:15.066Z,101303.67
2017-12-25T07:04:44.283Z,101311.89
2017-12-25T07:07:13.546Z,101303.19
2017-12-25T07:09:43.066Z,101302.36
2017-12-25T07:12:12.319Z,101298.02
2017-12-25T07:14:41.614Z,101294.59
2017-12-25T07:17:11.229Z,101296.36
2017-12-25T07:19:40.490Z,101288.11
2017-12-25T07:22:09.985Z,101287.28
2017-12-25T07:24:39.549Z,101285.88
2017-12-25T07:27:08.785Z,101284.67
2017-12-25T07:29:38.741Z,101283.80
2017-12-25T07:32:08.247Z,101288.63
2017-12-25T07:34:37.774Z,101286.49
2017-12-25T07:37:07.204Z,101288.14
2017-12-25T07:39:37.167Z,101290.45
2017-12-25T07:42:10.464Z,101293.63
2017-12-25T07:44:41.993Z,101294.88
2017-12-25T07:47:11.723Z,101294.45
2017-12-25T07:49:40.979Z,101290.93
2017-12-25T07:52:10.449Z,101279.84
2017-12-25T07:54:40.428Z,101279.71
2017-12-25T07:57:09.906Z,101276.96
2017-12-25T07:59:39.147Z,101284.02
2017-12-25T08:02:08.656Z,101272.17
2017-12-25T08:04:37.879Z,101273.05
2017-12-25T08:07:07.101Z,101270.06
2017-12-25T08:09:36.925Z,101274.89
2017-12-25T08:12:07.234Z,101273.34
2017-12-25T08:14:36.437Z,101278.18
2017-12-25T08:17:05.733Z,101272.53
2017-12-25T08:19:34.962Z,101275.47
2017-12-25T08:22:05.417Z,101264.03
2017-12-25T08:24:34.674Z,101261.66
2017-12-25T08:27:04.449Z,101257.61
2017-12-25T08:29:36.005Z,101263.45
2017-12-25T08:32:06.863Z,101258.71
2017-12-25T08:34:36.838Z,101255.19
2017-12-25T08:37:06.081Z,101253.06
2017-12-25T08:39:35.302Z,101249.63
2017-12-25T08:42:05.981Z,101248.23
2017-12-25T08:44:35.180Z,101247.61
2017-12-25T08:47:04.757Z,101256.59
2017-12-25T08:49:34.311Z,101250.16
2017-12-25T08:52:04.642Z,101247.41
2017-12-25T08:54:33.841Z,101237.16
2017-12-25T08:57:03.600Z,101244.13
2017-12-25T08:59:32.955Z,101242.20
2017-12-25T09:02:03.084Z,101242.48
2017-12-25T09:04:32.286Z,101235.38
2017-12-25T09:07:03.082Z,101229.48
2017-12-25T09:09:32.774Z,101233.39
2017-12-25T09:12:04.096Z,101230.19
2017-12-25T09:14:33.572Z,101230.15
2017-12-25T09:17:04.197Z,101230.97
2017-12-25T09:19:33.718Z,101231.11
2017-12-25T09:22:05.066Z,101238.51
2017-12-25T09:24:34.345Z,101231.50
2017-12-25T09:27:04.437Z,101237.40
2017-12-25T09:29:33.981Z,101242.58
2017-12-25T09:32:05.466Z,101246.96
2017-12-25T09:34:34.968Z,101251.02
2017-12-25T09:37:05.295Z,101245.76
2017-12-25T09:39:34.517Z,101245.62
2017-12-25T09:42:05.054Z,101239.95
2017-12-25T09:44:34.248Z,101254.71
2017-12-25T09:47:04.318Z,101245.47
2017-12-25T09:49:33.826Z,101245.81
2017-12-25T09:52:04.372Z,101237.64
2017-12-25T09:54:33.891Z,101239.77
2017-12-25T09:57:04.072Z,101232.95
2017-12-25T09:59:33.400Z,101229.19
2017-12-25T10:02:04.430Z,101218.80
2017-12-25T10:04:33.698Z,101213.95
2017-12-25T10:07:03.487Z,101211.88
2017-12-25T10:09:32.703Z,101208.75
2017-12-25T10:12:03.150Z,101204.83
2017-12-25T10:14:33.256Z,101198.36
2017-12-25T10:17:03.980Z,101197.67
2017-12-25T10:19:33.317Z,101190.77
2017-12-25T10:22:03.926Z,101186.86
2017-12-25T10:24:33.498Z,101182.59
2017-12-25T10:27:03.992Z,101174.23
2017-12-25T10:29:33.506Z,101169.56
2017-12-25T10:32:03.983Z,101174.49
2017-12-25T10:34:33.236Z,101162.03
2017-12-25T10:37:03.123Z,101154.98
2017-12-25T10:39:32.397Z,101149.47
2017-12-25T10:42:03.113Z,101140.98
2017-12-25T10:44:32.431Z,101133.25
2017-12-25T10:47:06.539Z,101136.73
2017-12-25T10:49:36.060Z,101129.52
2017-12-25T10:52:06.405Z,101122.52
2017-12-25T10:54:35.964Z,101122.03
2017-12-25T10:57:06.180Z,101119.03
2017-12-25T10:59:35.445Z,101122.80
2017-12-25T11:02:06.613Z,101108.55
2017-12-25T11:04:35.921Z,101100.61
2017-12-25T11:07:05.498Z,101100.62
2017-12-25T11:09:35.079Z,101096.75
2017-12-25T11:12:06.161Z,101093.94
2017-12-25T11:14:35.418Z,101083.34
2017-12-25T11:17:06.311Z,101085.83
2017-12-25T11:19:35.596Z,101086.61
2017-12-25T11:22:06.191Z,101083.50
2017-12-25T11:24:35.463Z,101078.61
2017-12-25T11:27:06.834Z,101082.30
2017-12-25T11:29:36.732Z,101076.97
2017-12-25T11:32:06.156Z,101067.52
2017-12-25T11:34:35.512Z,101062.03
2017-12-25T11:37:05.508Z,101053.59
2017-12-25T11:39:34.762Z,101057.02
2017-12-25T11:42:05.790Z,101042.52
2017-12-25T11:44:35.167Z,101036.97
2017-12-25T11:47:06.242Z,101035.61
2017-12-25T11:49:35.992Z,101020.60
2017-12-25T11:52:06.367Z,101026.25
2017-12-25T11:54:35.636Z,101019.67
2017-12-25T11:57:05.742Z,101017.14
2017-12-25T11:59:35.028Z,101013.28
2017-12-25T12:02:06.143Z,101011.48
2017-12-25T12:04:35.714Z,101011.14
2017-12-25T12:07:06.573Z,101006.91
2017-12-25T12:09:37.155Z,101005.98
2017-12-25T12:12:07.186Z,100987.66
2017-12-25T12:14:36.496Z,100989.94
2017-12-25T12:17:06.202Z,100989.34
2017-12-25T12:19:35.505Z,100994.43
2017-12-25T12:22:06.471Z,100983.67
2017-12-25T12:24:35.737Z,100981.73
2017-12-25T12:27:05.684Z,100971.42
2017-12-25T12:29:35.320Z,100967.13
2017-12-25T12:32:06.125Z,100962.71
2017-12-25T12:34:35.485Z,100961.84
2017-12-25T12:37:06.128Z,100954.22
2017-12-25T12:39:36.598Z,100947.98
2017-12-25T12:42:06.320Z,100948.43
2017-12-25T12:44:35.610Z,100941.24
2017-12-25T12:47:05.590Z,100933.12
2017-12-25T12:49:35.134Z,100931.49
2017-12-25T12:52:05.489Z,100923.97
2017-12-25T12:54:35.643Z,100923.97
2017-12-25T12:57:05.898Z,100919.56
2017-12-25T12:59:35.285Z,100917.76
2017-12-25T13:02:06.269Z,100908.13
2017-12-25T13:04:35.848Z,100905.95
2017-12-25T13:07:05.692Z,100902.98
2017-12-25T13:09:35.137Z,100891.78
2017-12-25T13:12:05.826Z,100889.95
2017-12-25T13:14:35.066Z,100879.73
2017-12-25T13:17:06.346Z,100876.98
2017-12-25T13:19:36.280Z,100879.09
2017-12-25T13:22:07.115Z,100883.55
2017-12-25T13:24:36.364Z,100869.95
2017-12-25T13:27:06.232Z,100868.28
2017-12-25T13:29:35.522Z,100870.41
2017-12-25T13:32:07.716Z,100863.20
2017-12-25T13:34:39.433Z,100859.09
2017-12-25T13:37:24.143Z,100862.58
2017-12-25T13:39:53.961Z,100854.11
2017-12-25T13:45:06.091Z,100848.83
2017-12-25T13:47:35.519Z,100851.81
2017-12-25T13:50:05.780Z,100844.23
2017-12-25T13:52:37.787Z,100836.39
2017-12-25T13:55:07.050Z,100833.09
2017-12-25T13:57:36.866Z,100829.30
2017-12-25T14:00:09.108Z,100829.73
2017-12-25T14:02:38.586Z,100825.83
2017-12-25T14:05:08.146Z,100824.95
2017-12-25T14:07:37.949Z,100824.84
2017-12-25T14:10:07.299Z,100816.37
2017-12-25T14:12:36.872Z,100808.50
2017-12-25T14:15:06.270Z,100810.48
2017-12-25T14:17:35.609Z,100813.74
2017-12-25T14:20:07.001Z,100815.35
2017-12-25T14:22:36.268Z,100810.52
2017-12-25T14:25:06.900Z,100809.28
2017-12-25T14:27:37.262Z,100807.84
2017-12-25T14:30:08.301Z,100806.93
2017-12-25T14:32:37.905Z,100807.04
2017-12-25T14:35:07.551Z,100807.53
2017-12-25T14:37:36.822Z,100800.78
2017-12-25T14:40:06.647Z,100801.16
2017-12-25T14:42:36.498Z,100789.04
2017-12-25T14:45:06.000Z,100778.86
2017-12-25T14:47:36.223Z,100777.03
2017-12-25T14:50:06.400Z,100773.39
2017-12-25T14:52:35.751Z,100762.27
2017-12-25T14:55:06.680Z,100757.91
2017-12-25T14:57:36.000Z,100767.09
2017-12-25T15:00:06.647Z,100762.89
2017-12-25T15:02:35.967Z,100763.42
2017-12-25T15:05:05.872Z,100760.62
2017-12-25T15:07:35.142Z,100756.88
2017-12-25T15:10:06.811Z,100761.22
2017-12-25T15:12:36.419Z,100756.98
2017-12-25T15:15:06.040Z,100755.05
2017-12-25T15:17:35.321Z,100752.07
2017-12-25T15:20:07.179Z,100746.59
2017-12-25T15:22:37.535Z,100754.09
2017-12-25T15:25:07.155Z,100749.16
2017-12-25T15:27:36.399Z,100752.00
2017-12-25T15:30:06.111Z,100749.08
2017-12-25T15:32:36.682Z,100744.36
2017-12-25T15:35:07.830Z,100740.19
2017-12-25T15:37:37.315Z,100732.81
2017-12-25T15:40:06.882Z,100735.04
2017-12-25T15:42:36.423Z,100728.20
2017-12-25T15:45:06.579Z,100732.27
2017-12-25T15:47:36.170Z,100733.14
2017-12-25T15:50:06.961Z,100732.00
2017-12-25T15:52:36.506Z,100726.08
2017-12-25T15:55:06.506Z,100724.84
2017-12-25T15:57:36.061Z,100726.30
2017-12-25T16:00:06.389Z,100727.66
2017-12-25T16:02:36.019Z,100728.68
2017-12-25T16:05:06.652Z,100723.62
2017-12-25T16:07:35.886Z,100718.01
2017-12-25T16:10:06.802Z,100713.33
2017-12-25T16:12:36.094Z,100716.50
2017-12-25T16:15:06.978Z,100710.19
2017-12-25T16:17:36.624Z,100704.50
2017-12-25T16:20:06.831Z,100699.78
2017-12-25T16:22:36.260Z,100698.16
2017-12-25T16:25:06.764Z,100701.67
2017-12-25T16:27:36.304Z,100705.58
2017-12-25T16:30:06.660Z,100702.17
2017-12-25T16:32:36.488Z,100690.84
2017-12-25T16:35:06.580Z,100691.86
2017-12-25T16:37:36.664Z,100686.23
2017-12-25T16:40:06.871Z,100684.55
2017-12-25T16:42:36.414Z,100688.64
2017-12-25T16:45:07.216Z,100687.48
2017-12-25T16:47:37.439Z,100682.25
2017-12-25T16:50:06.869Z,100684.06
2017-12-25T16:52:37.518Z,100674.54
2017-12-25T16:55:07.948Z,100672.37
2017-12-25T16:57:38.666Z,100674.59
2017-12-25T17:00:10.245Z,100670.45
2017-12-25T17:02:39.599Z,100667.90
2017-12-25T17:05:09.043Z,100668.34
2017-12-25T17:07:38.606Z,100660.97
2017-12-25T17:10:08.127Z,100665.36
2017-12-25T17:12:37.434Z,100662.80
2017-12-25T17:15:07.791Z,100665.06
2017-12-25T17:17:37.502Z,100648.17
2017-12-25T17:20:07.146Z,100647.41
2017-12-25T17:22:36.815Z,100651.78
2017-12-25T17:25:06.122Z,100646.58
2017-12-25T17:27:35.520Z,100642.30
2017-12-25T17:30:11.491Z,100633.59
2017-12-25T17:32:40.764Z,100633.25
2017-12-25T17:35:10.142Z,100634.50
2017-12-25T17:37:39.772Z,100628.88
2017-12-25T17:40:09.146Z,100624.74
2017-12-25T17:42:38.545Z,100617.38
2017-12-25T17:45:08.464Z,100616.94
2017-12-25T17:47:37.706Z,100612.66
2017-12-25T17:50:07.057Z,100604.82
2017-12-25T17:52:36.644Z,100606.17
2017-12-25T17:55:05.980Z,100603.56
2017-12-25T17:57:35.447Z,100604.91
2017-12-25T18:00:06.753Z,100596.16
2017-12-25T18:02:36.012Z,100595.29
2017-12-25T18:05:07.738Z,100592.64
2017-12-25T18:07:37.492Z,100584.03
2017-12-25T18:10:08.737Z,100585.09
2017-12-25T18:12:41.012Z,100585.97
2017-12-25T18:15:11.318Z,100586.81
2017-12-25T18:17:42.590Z,100589.90
2017-12-25T18:20:12.336Z,100586.92
2017-12-25T18:22:41.940Z,100573.69
2017-12-25T18:25:11.278Z,100578.02
2017-12-25T18:27:41.922Z,100568.88
2017-12-25T18:30:11.441Z,100571.05
2017-12-25T18:32:41.701Z,100561.27
2017-12-25T18:35:11.299Z,100567.34
2017-12-25T18:37:41.332Z,100563.02
2017-12-25T18:40:10.599Z,100566.04
2017-12-25T18:42:39.881Z,100559.64
2017-12-25T18:45:09.219Z,100563.45
2017-12-25T18:47:38.598Z,100558.73
2017-12-25T18:50:08.232Z,100556.67
2017-12-25T18:52:37.962Z,100557.53
2017-12-25T18:55:08.873Z,100551.05
2017-12-25T18:57:39.981Z,100547.58
2017-12-25T19:00:10.332Z,100550.59
2017-12-25T19:02:40.032Z,100551.81
2017-12-25T19:05:09.485Z,100541.47
2017-12-25T19:07:39.228Z,100529.73
2017-12-25T19:10:08.473Z,100524.11
2017-12-25T19:12:38.660Z,100528.44
2017-12-25T19:15:08.395Z,100532.75
2017-12-25T19:17:37.867Z,100529.69
2017-12-25T19:20:08.041Z,100527.95
2017-12-25T19:22:37.695Z,100523.19
2017-12-25T19:27:59.865Z,100516.70
2017-12-25T19:30:29.966Z,100519.30
2017-12-25T19:33:00.218Z,100522.33
2017-12-25T19:35:30.263Z,100516.41
2017-12-25T19:38:00.000Z,100518.09
2017-12-25T19:40:30.545Z,100511.94
2017-12-25T19:43:00.433Z,100511.99
2017-12-25T19:45:29.835Z,100507.22
2017-12-25T19:47:59.693Z,100513.58
2017-12-25T19:50:30.225Z,100504.19
2017-12-25T19:52:59.774Z,100502.47
2017-12-25T19:55:29.035Z,100500.36
2017-12-25T19:57:58.650Z,100497.37
2017-12-25T20:00:27.918Z,100497.70
2017-12-25T20:02:57.262Z,100489.53
2017-12-25T20:05:26.804Z,100478.38
2017-12-25T20:07:56.269Z,100475.39
2017-12-25T20:10:25.534Z,100463.32
2017-12-25T20:12:55.078Z,100458.08
2017-12-25T20:15:25.389Z,100468.04
2017-12-25T20:17:55.015Z,100462.31
2017-12-25T20:20:24.648Z,100467.70
2017-12-25T20:22:54.723Z,100462.51
2017-12-25T20:25:23.985Z,100459.15
2017-12-25T20:27:53.618Z,100458.38
2017-12-25T20:30:23.043Z,100455.31
2017-12-25T20:32:52.363Z,100455.89
2017-12-25T20:35:23.724Z,100451.94
2017-12-25T20:37:55.849Z,100451.13
2017-12-25T20:40:27.577Z,100445.55
2017-12-25T20:42:57.157Z,100442.96
2017-12-25T20:45:28.068Z,100437.39
2017-12-25T20:47:57.620Z,100438.67
2017-12-25T20:50:27.418Z,100438.30
2017-12-25T20:52:57.242Z,100430.47
2017-12-25T20:55:28.994Z,100428.30
2017-12-25T20:58:00.480Z,100426.27
2017-12-25T21:00:30.234Z,100426.67
2017-12-25T21:03:03.179Z,100422.92
2017-12-25T21:05:33.515Z,100422.48
2017-12-25T21:08:06.908Z,100421.19
2017-12-25T21:10:36.196Z,100419.03
2017-12-25T21:13:06.227Z,100405.71
2017-12-25T21:15:38.788Z,100404.80
2017-12-25T21:18:09.311Z,100404.03
2017-12-25T21:20:38.989Z,100405.82
2017-12-25T21:23:08.673Z,100395.53
2017-12-25T21:25:38.556Z,100387.75
2017-12-25T21:28:08.218Z,100388.19
2017-12-25T21:30:38.193Z,100390.88
2017-12-25T21:33:08.653Z,100376.95
2017-12-25T21:35:38.663Z,100383.47
2017-12-25T21:38:10.661Z,100377.89
2017-12-25T21:40:40.286Z,100372.33
2017-12-25T21:43:09.849Z,100373.73
2017-12-25T21:45:40.373Z,100365.52
2017-12-25T21:48:10.139Z,100378.39
2017-12-25T21:50:41.146Z,100371.09
2017-12-25T21:53:10.391Z,100377.23
2017-12-25T21:55:39.704Z,100369.84
2017-12-25T21:58:09.603Z,100373.30
2017-12-25T22:00:39.668Z,100362.05
2017-12-25T22:03:09.823Z,100364.64
2017-12-25T22:05:39.250Z,100363.89
2017-12-25T22:08:10.455Z,100357.88
2017-12-25T22:10:41.006Z,100356.97
2017-12-25T22:13:11.173Z,100351.82
2017-12-25T22:15:40.393Z,100346.73
2017-12-25T22:18:09.944Z,100345.87
2017-12-25T22:20:39.748Z,100343.62
2017-12-25T22:23:09.367Z,100342.36
2017-12-25T22:25:39.750Z,100336.70
2017-12-25T22:28:09.385Z,100336.79
2017-12-25T22:30:38.718Z,100338.86
2017-12-25T22:33:08.280Z,100336.75
2017-12-25T22:35:37.552Z,100336.75
2017-12-25T22:38:07.386Z,100336.31
2017-12-25T22:40:36.917Z,100324.11
2017-12-25T22:43:20.603Z,100319.89
2017-12-25T22:45:49.837Z,100310.41
2017-12-25T22:48:19.330Z,100313.83
2017-12-25T22:50:48.547Z,100316.38
2017-12-25T22:53:17.777Z,100315.13
2017-12-25T22:55:47.302Z,100312.97
2017-12-25T22:58:16.663Z,100318.67
2017-12-25T23:00:45.948Z,100317.38
2017-12-25T23:03:16.047Z,100310.86
2017-12-25T23:05:45.425Z,100304.36
2017-12-25T23:10:38.843Z,100297.94
2017-12-25T23:13:08.234Z,100295.77
2017-12-25T23:15:37.459Z,100291.02
2017-12-25T23:18:07.876Z,100288.03
2017-12-25T23:20:37.086Z,100291.83
2017-12-25T23:23:06.344Z,100292.60
2017-12-25T23:25:35.863Z,100282.70
2017-12-25T23:28:13.015Z,100277.58
2017-12-25T23:30:42.240Z,100280.09
2017-12-25T23:33:11.843Z,100269.36
2017-12-25T23:35:41.033Z,100268.50
2017-12-25T23:38:10.269Z,100267.25
2017-12-25T23:40:39.848Z,100261.95
2017-12-25T23:43:09.206Z,100257.19
2017-12-25T23:45:38.472Z,100248.55
2017-12-25T23:48:07.957Z,100244.66
2017-12-25T23:50:37.189Z,100246.39
2017-12-25T23:53:06.493Z,100237.59
2017-12-25T23:55:36.092Z,100235.42
2017-12-25T23:58:07.070Z,100231.96
